sensor_id;sensor_type;location;lat;lon;timestamp;temperature;humidity
22974;DHT22;11653;50.848;4.584;2022-08-19T00:00:09;19.30;99.90
22974;DHT22;11653;50.848;4.584;2022-08-19T00:02:36;19.30;99.90
22974;DHT22;11653;50.848;4.584;2022-08-19T00:05:02;19.30;99.90
22974;DHT22;11653;50.848;4.584;2022-08-19T00:07:28;19.30;99.90
22974;DHT22;11653;50.848;4.584;2022-08-19T00:09:53;19.20;99.90
22974;DHT22;11653;50.848;4.584;2022-08-19T00:12:19;19.20;99.90
22974;DHT22;11653;50.848;4.584;2022-08-19T00:14:45;19.10;99.90
22974;DHT22;11653;50.848;4.584;2022-08-19T00:17:10;19.10;99.90
22974;DHT22;11653;50.848;4.584;2022-08-19T00:19:37;19.20;99.90
22974;DHT22;11653;50.848;4.584;2022-08-19T00:22:03;19.10;99.90
22974;DHT22;11653;50.848;4.584;2022-08-19T00:24:31;19.00;99.90
22974;DHT22;11653;50.848;4.584;2022-08-19T00:26:56;19.00;99.90
22974;DHT22;11653;50.848;4.584;2022-08-19T00:29:24;19.00;99.90
22974;DHT22;11653;50.848;4.584;2022-08-19T00:31:51;19.00;99.90
22974;DHT22;11653;50.848;4.584;2022-08-19T00:34:20;18.90;99.90
22974;DHT22;11653;50.848;4.584;2022-08-19T00:36:47;18.90;99.90
22974;DHT22;11653;50.848;4.584;2022-08-19T00:39:14;18.80;99.90
22974;DHT22;11653;50.848;4.584;2022-08-19T00:41:41;18.90;99.90
22974;DHT22;11653;50.848;4.584;2022-08-19T00:44:12;18.90;99.90
22974;DHT22;11653;50.848;4.584;2022-08-19T00:46:43;18.80;99.90
22974;DHT22;11653;50.848;4.584;2022-08-19T00:49:18;18.90;99.90
22974;DHT22;11653;50.848;4.584;2022-08-19T00:51:48;19.00;99.90
22974;DHT22;11653;50.848;4.584;2022-08-19T00:54:16;19.10;99.90
22974;DHT22;11653;50.848;4.584;2022-08-19T00:56:43;19.00;99.90
22974;DHT22;11653;50.848;4.584;2022-08-19T00:59:10;18.90;99.90
22974;DHT22;11653;50.848;4.584;2022-08-19T01:01:38;18.90;99.90
22974;DHT22;11653;50.848;4.584;2022-08-19T01:04:04;18.90;99.90
22974;DHT22;11653;50.848;4.584;2022-08-19T01:06:30;19.00;99.90
22974;DHT22;11653;50.848;4.584;2022-08-19T01:08:58;19.00;99.90
22974;DHT22;11653;50.848;4.584;2022-08-19T01:11:24;19.00;99.90
22974;DHT22;11653;50.848;4.584;2022-08-19T01:13:52;19.00;99.90
22974;DHT22;11653;50.848;4.584;2022-08-19T01:16:20;19.00;99.90
22974;DHT22;11653;50.848;4.584;2022-08-19T01:18:47;19.00;99.90
22974;DHT22;11653;50.848;4.584;2022-08-19T01:21:40;19.00;99.90
22974;DHT22;11653;50.848;4.584;2022-08-19T01:24:07;19.10;99.90
22974;DHT22;11653;50.848;4.584;2022-08-19T01:26:39;19.00;99.90
22974;DHT22;11653;50.848;4.584;2022-08-19T01:29:07;19.00;99.90
22974;DHT22;11653;50.848;4.584;2022-08-19T01:31:33;19.00;99.90
22974;DHT22;11653;50.848;4.584;2022-08-19T01:34:00;18.90;99.90
22974;DHT22;11653;50.848;4.584;2022-08-19T01:36:40;18.90;99.90
22974;DHT22;11653;50.848;4.584;2022-08-19T01:39:10;19.00;99.90
22974;DHT22;11653;50.848;4.584;2022-08-19T01:41:36;18.90;99.90
22974;DHT22;11653;50.848;4.584;2022-08-19T01:44:03;18.80;99.90
22974;DHT22;11653;50.848;4.584;2022-08-19T01:46:30;18.80;99.90
22974;DHT22;11653;50.848;4.584;2022-08-19T01:48:56;18.80;99.90
22974;DHT22;11653;50.848;4.584;2022-08-19T01:51:22;18.80;99.90
22974;DHT22;11653;50.848;4.584;2022-08-19T01:53:48;18.80;99.90
22974;DHT22;11653;50.848;4.584;2022-08-19T01:56:14;18.70;99.90
22974;DHT22;11653;50.848;4.584;2022-08-19T01:58:46;18.60;99.90
22974;DHT22;11653;50.848;4.584;2022-08-19T02:01:13;18.70;99.90
22974;DHT22;11653;50.848;4.584;2022-08-19T02:03:39;18.60;99.90
22974;DHT22;11653;50.848;4.584;2022-08-19T02:06:06;18.60;99.90
22974;DHT22;11653;50.848;4.584;2022-08-19T02:08:33;18.60;99.90
22974;DHT22;11653;50.848;4.584;2022-08-19T02:11:00;18.50;99.90
22974;DHT22;11653;50.848;4.584;2022-08-19T02:13:26;18.50;99.90
22974;DHT22;11653;50.848;4.584;2022-08-19T02:15:52;18.50;99.90
22974;DHT22;11653;50.848;4.584;2022-08-19T02:18:17;18.50;99.90
22974;DHT22;11653;50.848;4.584;2022-08-19T02:20:44;18.40;99.90
22974;DHT22;11653;50.848;4.584;2022-08-19T02:23:12;18.50;99.90
22974;DHT22;11653;50.848;4.584;2022-08-19T02:25:38;18.40;99.90
22974;DHT22;11653;50.848;4.584;2022-08-19T02:28:05;18.40;99.90
22974;DHT22;11653;50.848;4.584;2022-08-19T02:30:30;18.30;99.90
22974;DHT22;11653;50.848;4.584;2022-08-19T02:32:56;18.30;99.90
22974;DHT22;11653;50.848;4.584;2022-08-19T02:35:23;18.30;99.90
22974;DHT22;11653;50.848;4.584;2022-08-19T02:37:49;18.30;99.90
22974;DHT22;11653;50.848;4.584;2022-08-19T02:40:34;18.30;99.90
22974;DHT22;11653;50.848;4.584;2022-08-19T02:43:01;18.20;99.90
22974;DHT22;11653;50.848;4.584;2022-08-19T02:45:31;18.10;99.90
22974;DHT22;11653;50.848;4.584;2022-08-19T02:47:56;18.00;99.90
22974;DHT22;11653;50.848;4.584;2022-08-19T02:50:22;18.00;99.90
22974;DHT22;11653;50.848;4.584;2022-08-19T02:52:48;18.00;99.90
22974;DHT22;11653;50.848;4.584;2022-08-19T02:55:14;17.90;99.90
22974;DHT22;11653;50.848;4.584;2022-08-19T02:57:40;17.90;99.90
22974;DHT22;11653;50.848;4.584;2022-08-19T03:00:08;17.80;99.90
22974;DHT22;11653;50.848;4.584;2022-08-19T03:02:38;17.80;99.90
22974;DHT22;11653;50.848;4.584;2022-08-19T03:05:05;17.80;99.90
22974;DHT22;11653;50.848;4.584;2022-08-19T03:07:31;17.80;99.90
22974;DHT22;11653;50.848;4.584;2022-08-19T03:09:56;17.80;99.90
22974;DHT22;11653;50.848;4.584;2022-08-19T03:12:22;17.80;99.90
22974;DHT22;11653;50.848;4.584;2022-08-19T03:14:48;17.80;99.90
22974;DHT22;11653;50.848;4.584;2022-08-19T03:17:13;17.80;99.90
22974;DHT22;11653;50.848;4.584;2022-08-19T03:19:39;17.80;99.90
22974;DHT22;11653;50.848;4.584;2022-08-19T03:22:05;17.70;99.90
22974;DHT22;11653;50.848;4.584;2022-08-19T03:24:31;17.70;99.90
22974;DHT22;11653;50.848;4.584;2022-08-19T03:26:57;17.60;99.90
22974;DHT22;11653;50.848;4.584;2022-08-19T03:29:26;17.60;99.90
22974;DHT22;11653;50.848;4.584;2022-08-19T03:31:52;17.50;99.90
22974;DHT22;11653;50.848;4.584;2022-08-19T03:34:27;17.60;99.90
22974;DHT22;11653;50.848;4.584;2022-08-19T03:36:55;17.60;99.90
22974;DHT22;11653;50.848;4.584;2022-08-19T03:39:22;17.50;99.90
22974;DHT22;11653;50.848;4.584;2022-08-19T03:41:49;17.50;99.90
22974;DHT22;11653;50.848;4.584;2022-08-19T03:44:20;17.40;99.90
22974;DHT22;11653;50.848;4.584;2022-08-19T03:46:49;17.50;99.90
22974;DHT22;11653;50.848;4.584;2022-08-19T03:49:15;17.40;99.90
22974;DHT22;11653;50.848;4.584;2022-08-19T03:51:42;17.40;99.90
22974;DHT22;11653;50.848;4.584;2022-08-19T03:54:10;17.40;99.90
22974;DHT22;11653;50.848;4.584;2022-08-19T03:56:37;17.40;99.90
22974;DHT22;11653;50.848;4.584;2022-08-19T03:59:05;17.40;99.90
22974;DHT22;11653;50.848;4.584;2022-08-19T04:01:31;17.40;99.90
22974;DHT22;11653;50.848;4.584;2022-08-19T04:03:58;17.40;99.90
22974;DHT22;11653;50.848;4.584;2022-08-19T04:06:27;17.30;99.90
22974;DHT22;11653;50.848;4.584;2022-08-19T04:08:54;17.40;99.90
22974;DHT22;11653;50.848;4.584;2022-08-19T04:11:24;17.30;99.90
22974;DHT22;11653;50.848;4.584;2022-08-19T04:13:51;17.30;99.90
22974;DHT22;11653;50.848;4.584;2022-08-19T04:16:18;17.20;99.90
22974;DHT22;11653;50.848;4.584;2022-08-19T04:18:46;17.20;99.90
22974;DHT22;11653;50.848;4.584;2022-08-19T04:21:17;17.20;99.90
22974;DHT22;11653;50.848;4.584;2022-08-19T04:23:42;17.20;99.90
22974;DHT22;11653;50.848;4.584;2022-08-19T04:26:13;17.20;99.90
22974;DHT22;11653;50.848;4.584;2022-08-19T04:28:39;17.20;99.90
22974;DHT22;11653;50.848;4.584;2022-08-19T04:31:05;17.20;99.90
22974;DHT22;11653;50.848;4.584;2022-08-19T04:33:30;17.20;99.90
22974;DHT22;11653;50.848;4.584;2022-08-19T04:35:57;17.20;99.90
22974;DHT22;11653;50.848;4.584;2022-08-19T04:38:23;17.30;99.90
22974;DHT22;11653;50.848;4.584;2022-08-19T04:40:51;17.30;99.90
22974;DHT22;11653;50.848;4.584;2022-08-19T04:43:37;17.30;99.90
22974;DHT22;11653;50.848;4.584;2022-08-19T04:46:06;17.30;99.90
22974;DHT22;11653;50.848;4.584;2022-08-19T04:48:34;17.30;99.90
22974;DHT22;11653;50.848;4.584;2022-08-19T04:50:59;17.40;99.90
22974;DHT22;11653;50.848;4.584;2022-08-19T04:53:29;17.40;99.90
22974;DHT22;11653;50.848;4.584;2022-08-19T04:55:57;17.40;99.90
22974;DHT22;11653;50.848;4.584;2022-08-19T04:58:24;17.40;99.90
22974;DHT22;11653;50.848;4.584;2022-08-19T05:00:50;17.40;99.90
22974;DHT22;11653;50.848;4.584;2022-08-19T05:03:16;17.40;99.90
22974;DHT22;11653;50.848;4.584;2022-08-19T05:05:47;17.50;99.90
22974;DHT22;11653;50.848;4.584;2022-08-19T05:08:19;17.50;99.90
22974;DHT22;11653;50.848;4.584;2022-08-19T05:10:50;17.60;99.90
22974;DHT22;11653;50.848;4.584;2022-08-19T05:13:17;17.60;99.90
22974;DHT22;11653;50.848;4.584;2022-08-19T05:15:44;17.70;99.90
22974;DHT22;11653;50.848;4.584;2022-08-19T05:18:18;17.70;99.90
22974;DHT22;11653;50.848;4.584;2022-08-19T05:21:10;17.80;99.90
22974;DHT22;11653;50.848;4.584;2022-08-19T05:23:54;18.00;99.90
22974;DHT22;11653;50.848;4.584;2022-08-19T05:26:20;18.10;99.90
22974;DHT22;11653;50.848;4.584;2022-08-19T05:28:46;18.40;99.90
22974;DHT22;11653;50.848;4.584;2022-08-19T05:31:12;18.50;99.90
22974;DHT22;11653;50.848;4.584;2022-08-19T05:33:39;18.70;99.90
22974;DHT22;11653;50.848;4.584;2022-08-19T05:36:05;19.00;99.90
22974;DHT22;11653;50.848;4.584;2022-08-19T05:38:33;19.10;99.90
22974;DHT22;11653;50.848;4.584;2022-08-19T05:40:59;19.30;99.90
22974;DHT22;11653;50.848;4.584;2022-08-19T05:43:25;19.40;99.90
22974;DHT22;11653;50.848;4.584;2022-08-19T05:45:50;19.60;99.90
22974;DHT22;11653;50.848;4.584;2022-08-19T05:48:17;19.70;99.90
22974;DHT22;11653;50.848;4.584;2022-08-19T05:50:46;19.80;99.90
22974;DHT22;11653;50.848;4.584;2022-08-19T05:53:12;20.10;99.90
22974;DHT22;11653;50.848;4.584;2022-08-19T05:55:39;20.40;99.90
22974;DHT22;11653;50.848;4.584;2022-08-19T05:58:05;20.60;99.90
22974;DHT22;11653;50.848;4.584;2022-08-19T06:00:33;20.90;99.90
22974;DHT22;11653;50.848;4.584;2022-08-19T06:02:59;21.20;99.90
22974;DHT22;11653;50.848;4.584;2022-08-19T06:05:31;21.50;99.90
22974;DHT22;11653;50.848;4.584;2022-08-19T06:07:57;21.80;99.90
22974;DHT22;11653;50.848;4.584;2022-08-19T06:10:24;22.30;99.90
22974;DHT22;11653;50.848;4.584;2022-08-19T06:12:50;22.70;99.90
22974;DHT22;11653;50.848;4.584;2022-08-19T06:15:15;23.10;99.90
22974;DHT22;11653;50.848;4.584;2022-08-19T06:17:42;23.50;99.90
22974;DHT22;11653;50.848;4.584;2022-08-19T06:20:12;23.80;99.90
22974;DHT22;11653;50.848;4.584;2022-08-19T06:22:44;24.20;99.90
22974;DHT22;11653;50.848;4.584;2022-08-19T06:25:12;24.60;99.90
22974;DHT22;11653;50.848;4.584;2022-08-19T06:27:38;24.90;99.90
22974;DHT22;11653;50.848;4.584;2022-08-19T06:30:04;25.10;99.90
22974;DHT22;11653;50.848;4.584;2022-08-19T06:32:30;25.20;99.90
22974;DHT22;11653;50.848;4.584;2022-08-19T06:34:56;25.20;99.90
22974;DHT22;11653;50.848;4.584;2022-08-19T06:37:22;25.30;99.90
22974;DHT22;11653;50.848;4.584;2022-08-19T06:39:48;25.30;99.90
22974;DHT22;11653;50.848;4.584;2022-08-19T06:42:15;25.50;99.90
22974;DHT22;11653;50.848;4.584;2022-08-19T06:44:46;25.90;99.90
22974;DHT22;11653;50.848;4.584;2022-08-19T06:47:16;26.50;99.90
22974;DHT22;11653;50.848;4.584;2022-08-19T06:49:42;26.70;99.90
22974;DHT22;11653;50.848;4.584;2022-08-19T06:52:09;26.70;99.90
22974;DHT22;11653;50.848;4.584;2022-08-19T06:54:38;26.60;99.70
22974;DHT22;11653;50.848;4.584;2022-08-19T06:57:05;26.10;99.90
22974;DHT22;11653;50.848;4.584;2022-08-19T06:59:32;25.70;99.90
22974;DHT22;11653;50.848;4.584;2022-08-19T07:02:00;25.40;99.90
22974;DHT22;11653;50.848;4.584;2022-08-19T07:04:29;25.50;99.90
22974;DHT22;11653;50.848;4.584;2022-08-19T07:07:05;25.70;99.90
22974;DHT22;11653;50.848;4.584;2022-08-19T07:09:33;26.00;99.90
22974;DHT22;11653;50.848;4.584;2022-08-19T07:11:59;26.50;99.90
22974;DHT22;11653;50.848;4.584;2022-08-19T07:14:27;27.30;99.90
22974;DHT22;11653;50.848;4.584;2022-08-19T07:16:56;28.00;98.20
22974;DHT22;11653;50.848;4.584;2022-08-19T07:19:24;28.10;96.90
22974;DHT22;11653;50.848;4.584;2022-08-19T07:21:51;28.30;96.40
22974;DHT22;11653;50.848;4.584;2022-08-19T07:24:22;28.50;95.50
22974;DHT22;11653;50.848;4.584;2022-08-19T07:26:53;28.60;95.30
22974;DHT22;11653;50.848;4.584;2022-08-19T07:29:20;28.80;94.60
22974;DHT22;11653;50.848;4.584;2022-08-19T07:31:49;28.80;94.80
22974;DHT22;11653;50.848;4.584;2022-08-19T07:34:15;28.60;94.80
22974;DHT22;11653;50.848;4.584;2022-08-19T07:36:42;28.40;94.70
22974;DHT22;11653;50.848;4.584;2022-08-19T07:39:20;28.10;95.70
22974;DHT22;11653;50.848;4.584;2022-08-19T07:41:46;28.10;95.40
22974;DHT22;11653;50.848;4.584;2022-08-19T07:44:13;28.00;95.60
22974;DHT22;11653;50.848;4.584;2022-08-19T07:46:42;28.10;96.60
22974;DHT22;11653;50.848;4.584;2022-08-19T07:49:10;28.60;95.20
22974;DHT22;11653;50.848;4.584;2022-08-19T07:51:43;28.90;94.40
22974;DHT22;11653;50.848;4.584;2022-08-19T07:54:09;29.10;94.30
22974;DHT22;11653;50.848;4.584;2022-08-19T07:56:35;28.80;93.70
22974;DHT22;11653;50.848;4.584;2022-08-19T07:59:00;27.70;95.20
22974;DHT22;11653;50.848;4.584;2022-08-19T08:01:27;26.80;97.70
22974;DHT22;11653;50.848;4.584;2022-08-19T08:03:54;26.30;99.90
22974;DHT22;11653;50.848;4.584;2022-08-19T08:06:38;26.10;99.90
22974;DHT22;11653;50.848;4.584;2022-08-19T08:09:27;25.80;99.90
22974;DHT22;11653;50.848;4.584;2022-08-19T08:11:54;25.60;99.90
22974;DHT22;11653;50.848;4.584;2022-08-19T08:14:33;25.30;99.90
22974;DHT22;11653;50.848;4.584;2022-08-19T08:17:00;25.10;99.90
22974;DHT22;11653;50.848;4.584;2022-08-19T08:19:28;24.90;99.90
22974;DHT22;11653;50.848;4.584;2022-08-19T08:21:56;25.00;99.90
22974;DHT22;11653;50.848;4.584;2022-08-19T08:24:23;24.90;99.90
22974;DHT22;11653;50.848;4.584;2022-08-19T08:26:49;24.80;99.90
22974;DHT22;11653;50.848;4.584;2022-08-19T08:29:14;24.90;99.90
22974;DHT22;11653;50.848;4.584;2022-08-19T08:31:43;25.10;99.90
22974;DHT22;11653;50.848;4.584;2022-08-19T08:34:09;25.20;99.90
22974;DHT22;11653;50.848;4.584;2022-08-19T08:36:37;25.10;99.90
22974;DHT22;11653;50.848;4.584;2022-08-19T08:39:09;25.20;99.90
22974;DHT22;11653;50.848;4.584;2022-08-19T08:44:18;25.70;99.90
22974;DHT22;11653;50.848;4.584;2022-08-19T08:46:51;25.90;99.90
22974;DHT22;11653;50.848;4.584;2022-08-19T08:52:36;25.60;99.90
22974;DHT22;11653;50.848;4.584;2022-08-19T08:55:08;25.20;99.90
22974;DHT22;11653;50.848;4.584;2022-08-19T08:58:12;24.80;99.90
22974;DHT22;11653;50.848;4.584;2022-08-19T09:00:38;24.50;99.90
22974;DHT22;11653;50.848;4.584;2022-08-19T09:03:31;24.60;99.90
22974;DHT22;11653;50.848;4.584;2022-08-19T09:11:15;25.40;99.90
22974;DHT22;11653;50.848;4.584;2022-08-19T09:16:31;25.80;99.90
22974;DHT22;11653;50.848;4.584;2022-08-19T09:19:02;25.90;99.90
22974;DHT22;11653;50.848;4.584;2022-08-19T09:21:28;25.80;99.90
22974;DHT22;11653;50.848;4.584;2022-08-19T09:23:54;25.70;99.90
22974;DHT22;11653;50.848;4.584;2022-08-19T09:26:21;25.50;99.90
22974;DHT22;11653;50.848;4.584;2022-08-19T09:28:49;25.30;99.90
22974;DHT22;11653;50.848;4.584;2022-08-19T09:31:20;25.00;99.90
22974;DHT22;11653;50.848;4.584;2022-08-19T09:33:47;24.80;99.90
22974;DHT22;11653;50.848;4.584;2022-08-19T09:36:16;24.90;99.90
22974;DHT22;11653;50.848;4.584;2022-08-19T09:38:42;25.00;99.90
22974;DHT22;11653;50.848;4.584;2022-08-19T09:41:12;25.10;99.90
22974;DHT22;11653;50.848;4.584;2022-08-19T09:43:40;25.00;99.90
22974;DHT22;11653;50.848;4.584;2022-08-19T09:46:07;24.80;99.90
22974;DHT22;11653;50.848;4.584;2022-08-19T09:48:35;24.80;99.90
22974;DHT22;11653;50.848;4.584;2022-08-19T09:51:10;24.90;99.90
22974;DHT22;11653;50.848;4.584;2022-08-19T09:53:37;24.90;99.90
22974;DHT22;11653;50.848;4.584;2022-08-19T09:56:04;24.90;99.90
22974;DHT22;11653;50.848;4.584;2022-08-19T09:58:30;24.80;99.90
22974;DHT22;11653;50.848;4.584;2022-08-19T10:00:57;24.70;99.90
22974;DHT22;11653;50.848;4.584;2022-08-19T10:03:27;24.50;99.90
22974;DHT22;11653;50.848;4.584;2022-08-19T10:05:54;24.50;99.90
22974;DHT22;11653;50.848;4.584;2022-08-19T10:08:23;24.40;99.90
22974;DHT22;11653;50.848;4.584;2022-08-19T10:10:54;24.40;99.90
22974;DHT22;11653;50.848;4.584;2022-08-19T10:13:31;24.40;99.90
22974;DHT22;11653;50.848;4.584;2022-08-19T10:16:07;24.50;99.90
22974;DHT22;11653;50.848;4.584;2022-08-19T10:18:33;24.50;99.90
22974;DHT22;11653;50.848;4.584;2022-08-19T10:21:19;24.70;99.90
22974;DHT22;11653;50.848;4.584;2022-08-19T10:23:49;24.90;99.90
22974;DHT22;11653;50.848;4.584;2022-08-19T10:26:21;25.00;99.90
22974;DHT22;11653;50.848;4.584;2022-08-19T10:28:48;25.00;99.90
22974;DHT22;11653;50.848;4.584;2022-08-19T10:31:17;25.10;99.90
22974;DHT22;11653;50.848;4.584;2022-08-19T10:33:45;25.30;99.90
22974;DHT22;11653;50.848;4.584;2022-08-19T10:36:20;25.70;99.90
22974;DHT22;11653;50.848;4.584;2022-08-19T10:38:49;26.20;99.90
22974;DHT22;11653;50.848;4.584;2022-08-19T10:41:31;26.50;99.90
22974;DHT22;11653;50.848;4.584;2022-08-19T10:44:03;26.70;99.90
22974;DHT22;11653;50.848;4.584;2022-08-19T10:46:38;26.70;99.90
22974;DHT22;11653;50.848;4.584;2022-08-19T10:49:08;26.60;99.90
22974;DHT22;11653;50.848;4.584;2022-08-19T10:51:34;26.50;99.90
22974;DHT22;11653;50.848;4.584;2022-08-19T10:54:19;26.50;99.90
22974;DHT22;11653;50.848;4.584;2022-08-19T10:56:44;26.70;99.90
22974;DHT22;11653;50.848;4.584;2022-08-19T10:59:21;26.90;99.90
22974;DHT22;11653;50.848;4.584;2022-08-19T11:01:48;26.90;99.90
22974;DHT22;11653;50.848;4.584;2022-08-19T11:04:15;26.90;99.90
22974;DHT22;11653;50.848;4.584;2022-08-19T11:06:47;26.60;99.90
22974;DHT22;11653;50.848;4.584;2022-08-19T11:09:23;26.20;99.90
22974;DHT22;11653;50.848;4.584;2022-08-19T11:11:51;25.90;99.90
22974;DHT22;11653;50.848;4.584;2022-08-19T11:14:20;25.80;99.90
22974;DHT22;11653;50.848;4.584;2022-08-19T11:16:48;25.60;99.90
22974;DHT22;11653;50.848;4.584;2022-08-19T11:19:14;25.50;99.90
22974;DHT22;11653;50.848;4.584;2022-08-19T11:21:44;25.40;99.90
22974;DHT22;11653;50.848;4.584;2022-08-19T11:24:21;25.40;99.90
22974;DHT22;11653;50.848;4.584;2022-08-19T11:26:48;25.30;99.90
22974;DHT22;11653;50.848;4.584;2022-08-19T11:29:16;25.20;99.90
22974;DHT22;11653;50.848;4.584;2022-08-19T11:31:44;25.30;99.90
22974;DHT22;11653;50.848;4.584;2022-08-19T11:34:14;25.50;99.90
22974;DHT22;11653;50.848;4.584;2022-08-19T11:36:43;25.60;99.90
22974;DHT22;11653;50.848;4.584;2022-08-19T11:39:12;25.60;99.90
22974;DHT22;11653;50.848;4.584;2022-08-19T11:41:38;25.60;99.90
22974;DHT22;11653;50.848;4.584;2022-08-19T11:44:04;25.80;99.90
22974;DHT22;11653;50.848;4.584;2022-08-19T11:46:31;25.90;99.90
22974;DHT22;11653;50.848;4.584;2022-08-19T11:48:58;25.90;99.90
22974;DHT22;11653;50.848;4.584;2022-08-19T11:51:25;25.80;99.90
22974;DHT22;11653;50.848;4.584;2022-08-19T11:53:52;25.60;99.90
22974;DHT22;11653;50.848;4.584;2022-08-19T11:56:19;25.40;99.90
22974;DHT22;11653;50.848;4.584;2022-08-19T11:58:45;25.30;99.90
22974;DHT22;11653;50.848;4.584;2022-08-19T12:01:13;25.40;99.90
22974;DHT22;11653;50.848;4.584;2022-08-19T12:03:41;25.20;99.90
22974;DHT22;11653;50.848;4.584;2022-08-19T12:06:10;25.20;99.90
22974;DHT22;11653;50.848;4.584;2022-08-19T12:08:37;25.20;99.90
22974;DHT22;11653;50.848;4.584;2022-08-19T12:11:03;25.20;99.90
22974;DHT22;11653;50.848;4.584;2022-08-19T12:13:30;25.10;99.90
22974;DHT22;11653;50.848;4.584;2022-08-19T12:15:56;25.20;99.90
22974;DHT22;11653;50.848;4.584;2022-08-19T12:18:25;25.30;99.90
22974;DHT22;11653;50.848;4.584;2022-08-19T12:20:53;25.60;99.90
22974;DHT22;11653;50.848;4.584;2022-08-19T12:23:20;25.80;99.90
22974;DHT22;11653;50.848;4.584;2022-08-19T12:25:47;26.00;99.90
22974;DHT22;11653;50.848;4.584;2022-08-19T12:28:19;26.20;99.90
22974;DHT22;11653;50.848;4.584;2022-08-19T12:30:45;26.50;99.90
22974;DHT22;11653;50.848;4.584;2022-08-19T12:33:10;26.60;99.90
22974;DHT22;11653;50.848;4.584;2022-08-19T12:35:40;26.60;99.90
22974;DHT22;11653;50.848;4.584;2022-08-19T12:38:06;26.60;99.90
22974;DHT22;11653;50.848;4.584;2022-08-19T12:40:32;26.80;99.90
22974;DHT22;11653;50.848;4.584;2022-08-19T12:42:57;27.10;99.90
22974;DHT22;11653;50.848;4.584;2022-08-19T12:45:23;27.30;99.90
22974;DHT22;11653;50.848;4.584;2022-08-19T12:47:50;27.50;99.90
22974;DHT22;11653;50.848;4.584;2022-08-19T12:50:17;27.50;99.90
22974;DHT22;11653;50.848;4.584;2022-08-19T12:52:42;27.30;99.90
22974;DHT22;11653;50.848;4.584;2022-08-19T12:55:08;27.30;99.90
22974;DHT22;11653;50.848;4.584;2022-08-19T12:57:35;27.40;99.90
22974;DHT22;11653;50.848;4.584;2022-08-19T13:00:05;27.60;99.90
22974;DHT22;11653;50.848;4.584;2022-08-19T13:02:36;27.80;99.90
22974;DHT22;11653;50.848;4.584;2022-08-19T13:05:03;28.00;99.90
22974;DHT22;11653;50.848;4.584;2022-08-19T13:07:31;28.20;99.90
22974;DHT22;11653;50.848;4.584;2022-08-19T13:09:57;28.60;99.90
22974;DHT22;11653;50.848;4.584;2022-08-19T13:12:23;28.90;99.90
22974;DHT22;11653;50.848;4.584;2022-08-19T13:14:53;28.80;98.60
22974;DHT22;11653;50.848;4.584;2022-08-19T13:17:19;28.70;98.90
22974;DHT22;11653;50.848;4.584;2022-08-19T13:19:45;28.80;99.40
22974;DHT22;11653;50.848;4.584;2022-08-19T13:22:11;28.80;99.20
22974;DHT22;11653;50.848;4.584;2022-08-19T13:24:37;29.00;98.60
22974;DHT22;11653;50.848;4.584;2022-08-19T13:27:03;28.90;97.80
22974;DHT22;11653;50.848;4.584;2022-08-19T13:29:29;28.70;98.00
22974;DHT22;11653;50.848;4.584;2022-08-19T13:32:13;28.50;97.90
22974;DHT22;11653;50.848;4.584;2022-08-19T13:34:57;28.40;98.70
22974;DHT22;11653;50.848;4.584;2022-08-19T13:37:23;28.20;98.90
22974;DHT22;11653;50.848;4.584;2022-08-19T13:40:11;28.10;98.40
22974;DHT22;11653;50.848;4.584;2022-08-19T13:42:39;28.00;98.80
22974;DHT22;11653;50.848;4.584;2022-08-19T13:45:06;27.90;98.70
22974;DHT22;11653;50.848;4.584;2022-08-19T13:47:33;27.80;99.00
22974;DHT22;11653;50.848;4.584;2022-08-19T13:50:02;27.90;98.90
22974;DHT22;11653;50.848;4.584;2022-08-19T13:52:27;27.90;99.00
22974;DHT22;11653;50.848;4.584;2022-08-19T13:54:53;27.90;98.40
22974;DHT22;11653;50.848;4.584;2022-08-19T13:57:19;28.00;99.10
22974;DHT22;11653;50.848;4.584;2022-08-19T13:59:45;28.00;98.90
22974;DHT22;11653;50.848;4.584;2022-08-19T14:02:10;28.00;99.00
22974;DHT22;11653;50.848;4.584;2022-08-19T14:04:36;28.00;99.40
22974;DHT22;11653;50.848;4.584;2022-08-19T14:07:03;28.00;99.50
22974;DHT22;11653;50.848;4.584;2022-08-19T14:09:29;28.00;99.40
22974;DHT22;11653;50.848;4.584;2022-08-19T14:11:55;28.30;99.10
22974;DHT22;11653;50.848;4.584;2022-08-19T14:14:21;28.50;99.20
22974;DHT22;11653;50.848;4.584;2022-08-19T14:16:47;28.60;97.90
22974;DHT22;11653;50.848;4.584;2022-08-19T14:19:13;28.50;97.60
22974;DHT22;11653;50.848;4.584;2022-08-19T14:21:39;28.40;97.80
22974;DHT22;11653;50.848;4.584;2022-08-19T14:24:06;28.10;98.00
22974;DHT22;11653;50.848;4.584;2022-08-19T14:26:32;27.90;98.20
22974;DHT22;11653;50.848;4.584;2022-08-19T14:28:58;27.70;98.70
22974;DHT22;11653;50.848;4.584;2022-08-19T14:31:24;27.40;99.30
22974;DHT22;11653;50.848;4.584;2022-08-19T14:33:50;27.30;99.90
22974;DHT22;11653;50.848;4.584;2022-08-19T14:36:17;27.30;99.90
22974;DHT22;11653;50.848;4.584;2022-08-19T14:38:44;27.20;99.90
22974;DHT22;11653;50.848;4.584;2022-08-19T14:41:17;26.90;99.90
22974;DHT22;11653;50.848;4.584;2022-08-19T14:43:47;26.50;99.90
22974;DHT22;11653;50.848;4.584;2022-08-19T14:46:17;26.20;99.90
22974;DHT22;11653;50.848;4.584;2022-08-19T14:48:45;25.90;99.90
22974;DHT22;11653;50.848;4.584;2022-08-19T14:51:10;25.60;99.90
22974;DHT22;11653;50.848;4.584;2022-08-19T14:53:37;25.40;99.90
22974;DHT22;11653;50.848;4.584;2022-08-19T14:56:11;25.30;99.90
22974;DHT22;11653;50.848;4.584;2022-08-19T14:58:37;25.20;99.90
22974;DHT22;11653;50.848;4.584;2022-08-19T15:01:03;25.20;99.90
22974;DHT22;11653;50.848;4.584;2022-08-19T15:03:30;25.40;99.90
22974;DHT22;11653;50.848;4.584;2022-08-19T15:05:57;25.40;99.90
22974;DHT22;11653;50.848;4.584;2022-08-19T15:08:23;25.50;99.90
22974;DHT22;11653;50.848;4.584;2022-08-19T15:10:50;25.60;99.90
22974;DHT22;11653;50.848;4.584;2022-08-19T15:13:16;25.30;99.90
22974;DHT22;11653;50.848;4.584;2022-08-19T15:15:42;25.30;99.90
22974;DHT22;11653;50.848;4.584;2022-08-19T15:18:08;25.10;99.90
22974;DHT22;11653;50.848;4.584;2022-08-19T15:20:34;24.90;99.90
22974;DHT22;11653;50.848;4.584;2022-08-19T15:23:00;24.80;99.90
22974;DHT22;11653;50.848;4.584;2022-08-19T15:25:26;24.80;99.90
22974;DHT22;11653;50.848;4.584;2022-08-19T15:27:52;24.90;99.90
22974;DHT22;11653;50.848;4.584;2022-08-19T15:30:24;24.90;99.90
22974;DHT22;11653;50.848;4.584;2022-08-19T15:32:50;25.00;99.90
22974;DHT22;11653;50.848;4.584;2022-08-19T15:35:18;25.20;99.90
22974;DHT22;11653;50.848;4.584;2022-08-19T15:37:47;25.20;99.90
22974;DHT22;11653;50.848;4.584;2022-08-19T15:40:13;25.40;99.90
22974;DHT22;11653;50.848;4.584;2022-08-19T15:42:39;25.50;99.90
22974;DHT22;11653;50.848;4.584;2022-08-19T15:45:08;25.40;99.90
22974;DHT22;11653;50.848;4.584;2022-08-19T15:47:34;25.40;99.90
22974;DHT22;11653;50.848;4.584;2022-08-19T15:50:11;25.20;99.90